Time;durP1;ratioP1;P1;durP2;ratioP2;P2;SDS_P1;SDS_P2;PMS_P1;PMS_P2;Temp;Humidity;BMP_temperature;BMP_pressure;BME280_temperature;BME280_humidity;BME280_pressure;Samples;Min_cycle;Max_cycle;Signal;HPM_P1;HPM_P2
2023/08/21 00:01:50;;;;;;;2.78;1.63;;;21.00;99.90;;;;;;5041258;28;20278;-71
2023/08/21 00:04:18;;;;;;;2.50;1.80;;;21.00;99.90;;;;;;5064723;28;20211;-66
2023/08/21 00:06:45;;;;;;;2.00;1.80;;;21.10;99.90;;;;;;5030447;28;20199;-67
2023/08/21 00:09:12;;;;;;;5.13;1.85;;;21.00;99.90;;;;;;5028771;28;20198;-66
2023/08/21 00:11:39;;;;;;;2.35;1.80;;;20.90;99.90;;;;;;5065083;28;20234;-70
2023/08/21 00:14:06;;;;;;;2.35;1.60;;;20.90;99.90;;;;;;5046909;28;20234;-67
2023/08/21 00:16:34;;;;;;;5.28;1.63;;;20.80;99.90;;;;;;5044715;28;20523;-68
2023/08/21 00:19:01;;;;;;;2.30;1.67;;;20.60;99.90;;;;;;5049855;28;20211;-67
2023/08/21 00:21:29;;;;;;;3.38;1.58;;;20.60;99.90;;;;;;5051854;28;20202;-68
2023/08/21 00:23:56;;;;;;;2.63;1.80;;;20.50;99.90;;;;;;5068421;28;20231;-72
2023/08/21 00:26:23;;;;;;;2.42;1.90;;;20.40;99.90;;;;;;5051995;28;20199;-70
2023/08/21 00:28:50;;;;;;;3.63;2.00;;;20.50;99.90;;;;;;5068158;28;20580;-68
2023/08/21 00:31:17;;;;;;;5.55;1.98;;;20.50;99.90;;;;;;5046781;28;20203;-68
2023/08/21 00:33:44;;;;;;;4.68;2.05;;;20.50;99.90;;;;;;5051628;28;20563;-70
2023/08/21 00:36:11;;;;;;;2.42;1.88;;;20.60;99.90;;;;;;5039258;28;20588;-67
2023/08/21 00:38:38;;;;;;;2.90;1.80;;;20.60;99.90;;;;;;5043544;28;20202;-67
2023/08/21 00:41:05;;;;;;;1.60;1.50;;;20.60;99.90;;;;;;5044827;28;20438;-66
2023/08/21 00:43:32;;;;;;;2.22;1.88;;;20.60;99.90;;;;;;5032607;28;20195;-66
2023/08/21 00:45:59;;;;;;;4.63;2.03;;;20.70;99.90;;;;;;5025809;28;20218;-66
2023/08/21 00:48:27;;;;;;;2.55;1.48;;;20.80;99.90;;;;;;5025790;28;20195;-68
2023/08/21 00:50:54;;;;;;;6.55;2.25;;;20.70;99.90;;;;;;5063014;28;20566;-67
2023/08/21 00:53:22;;;;;;;2.40;1.60;;;20.70;99.90;;;;;;5050632;28;20210;-66
2023/08/21 00:55:49;;;;;;;2.60;1.67;;;20.60;99.90;;;;;;5050746;28;20424;-66
2023/08/21 00:58:17;;;;;;;2.03;1.52;;;20.50;99.90;;;;;;5069613;28;20266;-64
2023/08/21 01:00:50;;;;;;;2.25;1.67;;;20.60;99.90;;;;;;5032318;28;20238;-66
2023/08/21 01:03:18;;;;;;;5.07;2.30;;;20.60;99.90;;;;;;5030600;28;20226;-66
2023/08/21 01:05:45;;;;;;;2.80;1.80;;;20.40;99.90;;;;;;5067232;28;20662;-66
2023/08/21 01:08:28;;;;;;;3.40;2.05;;;20.20;99.90;;;;;;5066214;28;20191;-66
2023/08/21 01:11:06;;;;;;;5.15;1.75;;;20.10;99.90;;;;;;5049364;28;20328;-66
2023/08/21 01:14:10;;;;;;;2.08;1.80;;;20.10;99.90;;;;;;5062195;28;20632;-66
2023/08/21 01:16:38;;;;;;;6.18;2.25;;;20.00;99.90;;;;;;5034217;28;20290;-66
2023/08/21 01:19:15;;;;;;;5.95;1.80;;;19.80;99.90;;;;;;5051522;28;20191;-66
2023/08/21 01:21:43;;;;;;;4.43;1.70;;;19.60;99.90;;;;;;5050632;28;20198;-68
2023/08/21 01:24:10;;;;;;;5.20;1.65;;;19.50;99.90;;;;;;5055491;28;20555;-66
2023/08/21 01:26:39;;;;;;;6.05;1.88;;;19.40;99.90;;;;;;5058186;28;20185;-67
2023/08/21 01:29:07;;;;;;;3.15;1.70;;;19.50;99.90;;;;;;5033958;28;20592;-67
2023/08/21 01:31:39;;;;;;;5.55;1.67;;;19.70;99.90;;;;;;5064916;28;20183;-66
2023/08/21 01:34:11;;;;;;;6.68;1.75;;;19.80;99.90;;;;;;5048603;28;20195;-67
2023/08/21 01:36:38;;;;;;;2.00;1.63;;;19.80;99.90;;;;;;5047149;28;20188;-67
2023/08/21 01:39:06;;;;;;;6.20;1.77;;;19.70;99.90;;;;;;5061284;28;20204;-66
2023/08/21 01:41:34;;;;;;;5.13;2.20;;;19.70;99.90;;;;;;5045257;28;20279;-66
2023/08/21 01:44:01;;;;;;;1.90;1.73;;;19.70;99.90;;;;;;5062118;28;20194;-66
2023/08/21 01:46:28;;;;;;;1.70;1.60;;;19.60;99.90;;;;;;5052658;28;20240;-66
2023/08/21 01:48:55;;;;;;;2.20;1.60;;;19.50;99.90;;;;;;5055980;28;20199;-66
2023/08/21 01:51:21;;;;;;;8.15;1.85;;;19.70;99.90;;;;;;5045541;28;20208;-66
2023/08/21 01:53:51;;;;;;;2.50;1.70;;;19.70;99.90;;;;;;5062475;28;20564;-67
2023/08/21 01:56:18;;;;;;;6.03;2.42;;;19.70;99.90;;;;;;5066469;28;20589;-67
2023/08/21 01:58:45;;;;;;;6.28;2.95;;;19.70;99.90;;;;;;5046446;28;20198;-68
2023/08/21 02:05:12;;;;;;;6.13;2.17;;;19.70;99.90;;;;;;5064659;28;20276;-67
2023/08/21 02:07:39;;;;;;;4.70;2.10;;;19.70;99.90;;;;;;5035204;28;20210;-66
2023/08/21 02:10:07;;;;;;;3.55;1.70;;;19.70;99.90;;;;;;5023205;28;20188;-67
2023/08/21 02:12:34;;;;;;;4.53;2.20;;;19.80;99.90;;;;;;5059080;28;20723;-72
2023/08/21 02:15:06;;;;;;;2.08;1.88;;;19.70;99.90;;;;;;5048555;28;20188;-67
2023/08/21 02:17:33;;;;;;;4.72;2.70;;;19.90;99.90;;;;;;5027165;28;20623;-72
2023/08/21 02:20:00;;;;;;;4.05;2.40;;;19.80;99.90;;;;;;5043699;28;20569;-66
2023/08/21 02:22:27;;;;;;;3.78;3.17;;;19.70;99.90;;;;;;5047060;28;20298;-70
2023/08/21 02:24:54;;;;;;;7.55;3.00;;;19.80;99.90;;;;;;5056892;28;20662;-67
2023/08/21 02:27:21;;;;;;;4.63;2.60;;;19.90;99.90;;;;;;5055681;28;20543;-66
2023/08/21 02:29:49;;;;;;;5.35;2.10;;;19.80;99.90;;;;;;5067552;28;20229;-68
2023/08/21 02:32:16;;;;;;;4.88;2.15;;;19.70;99.90;;;;;;5064608;28;20183;-68
2023/08/21 02:34:43;;;;;;;3.45;2.10;;;19.60;99.90;;;;;;5048844;28;20225;-67
2023/08/21 02:37:10;;;;;;;4.65;2.15;;;19.60;99.90;;;;;;5062902;28;20665;-67
2023/08/21 02:39:37;;;;;;;3.22;2.65;;;19.60;99.90;;;;;;5050180;28;20282;-67
2023/08/21 02:42:04;;;;;;;4.45;1.80;;;19.60;99.90;;;;;;5064878;28;20244;-67
2023/08/21 02:44:31;;;;;;;3.33;2.08;;;19.60;99.90;;;;;;5059265;28;20194;-67
2023/08/21 02:46:58;;;;;;;5.35;2.88;;;19.50;99.90;;;;;;5065149;28;20678;-67
2023/08/21 02:49:25;;;;;;;7.00;2.85;;;19.40;99.90;;;;;;5060235;28;20261;-67
2023/08/21 02:51:52;;;;;;;3.00;2.28;;;19.50;99.90;;;;;;5046163;28;20281;-67
2023/08/21 02:54:19;;;;;;;4.72;2.70;;;19.50;99.90;;;;;;5067587;28;20187;-67
2023/08/21 02:56:48;;;;;;;4.90;2.80;;;19.60;99.90;;;;;;5040349;28;20210;-67
2023/08/21 02:59:15;;;;;;;3.97;2.28;;;19.60;99.90;;;;;;5048010;28;20276;-74
2023/08/21 03:01:42;;;;;;;5.25;2.78;;;19.50;99.90;;;;;;5068424;28;20221;-75
2023/08/21 03:04:09;;;;;;;3.30;2.20;;;19.40;99.90;;;;;;5046911;28;20286;-69
2023/08/21 03:06:36;;;;;;;3.42;2.40;;;19.40;99.90;;;;;;5064789;28;20217;-70
2023/08/21 03:09:03;;;;;;;5.32;2.47;;;19.30;99.90;;;;;;5059856;28;20254;-67
2023/08/21 03:11:30;;;;;;;3.33;2.05;;;19.10;99.90;;;;;;5054740;28;20194;-68
2023/08/21 03:13:57;;;;;;;2.78;1.75;;;19.10;99.90;;;;;;5066942;28;20693;-69
2023/08/21 03:16:24;;;;;;;5.43;2.25;;;18.70;99.90;;;;;;5023220;28;20199;-69
2023/08/21 03:18:59;;;;;;;6.20;2.25;;;18.60;99.90;;;;;;5048835;28;20198;-71
2023/08/21 03:21:28;;;;;;;2.53;2.10;;;18.50;99.90;;;;;;5027139;28;20206;-70
2023/08/21 03:24:01;;;;;;;5.10;2.17;;;18.40;99.90;;;;;;5043002;28;20230;-70
2023/08/21 03:26:31;;;;;;;3.55;1.95;;;18.40;99.90;;;;;;5053456;28;20218;-68
2023/08/21 03:28:58;;;;;;;4.07;2.58;;;18.10;99.90;;;;;;5041769;28;20183;-67
2023/08/21 03:31:26;;;;;;;4.53;2.00;;;18.30;99.90;;;;;;5041805;28;20662;-66
2023/08/21 03:33:53;;;;;;;4.82;2.40;;;18.30;99.90;;;;;;5044647;28;20182;-66
2023/08/21 03:36:30;;;;;;;2.80;2.38;;;18.30;99.90;;;;;;5043272;28;20233;-66
2023/08/21 03:39:05;;;;;;;5.65;2.10;;;18.40;99.90;;;;;;5044984;28;20202;-66
2023/08/21 03:41:36;;;;;;;2.60;1.92;;;18.50;99.90;;;;;;5044410;28;20283;-67
2023/08/21 03:44:03;;;;;;;3.83;2.08;;;18.70;99.90;;;;;;5046525;28;20191;-64
2023/08/21 03:46:30;;;;;;;5.72;2.28;;;18.90;99.90;;;;;;5030665;28;20219;-64
2023/08/21 03:48:59;;;;;;;9.25;2.20;;;19.00;99.90;;;;;;5058028;28;20693;-63
2023/08/21 03:51:26;;;;;;;2.67;2.10;;;19.00;99.90;;;;;;5032516;28;20194;-62
2023/08/21 03:53:53;;;;;;;6.25;2.35;;;19.00;99.90;;;;;;5041120;28;20210;-64
2023/08/21 03:56:21;;;;;;;4.10;2.38;;;19.10;99.90;;;;;;5048711;28;20217;-63
2023/08/21 03:58:49;;;;;;;6.18;2.15;;;19.20;99.90;;;;;;5052555;28;20294;-70
2023/08/21 04:01:16;;;;;;;5.28;2.08;;;19.20;99.90;;;;;;5031554;28;20194;-64
2023/08/21 04:03:43;;;;;;;7.20;2.15;;;19.30;99.90;;;;;;5050862;28;20223;-66
2023/08/21 04:06:11;;;;;;;2.95;1.98;;;19.30;99.90;;;;;;5048670;28;20522;-64
2023/08/21 04:08:38;;;;;;;2.67;1.75;;;19.40;99.90;;;;;;5059620;28;20188;-64
2023/08/21 04:11:06;;;;;;;3.05;1.88;;;19.40;99.90;;;;;;5068246;28;20240;-63
2023/08/21 04:13:33;;;;;;;2.28;1.85;;;19.50;99.90;;;;;;5060254;28;20200;-63
2023/08/21 04:16:00;;;;;;;3.58;2.30;;;19.50;99.90;;;;;;5034903;28;20723;-64
2023/08/21 04:18:27;;;;;;;3.53;2.05;;;19.50;99.90;;;;;;5061353;28;20179;-62
2023/08/21 04:21:07;;;;;;;4.60;2.10;;;19.50;99.90;;;;;;5068008;28;20209;-63
2023/08/21 04:23:35;;;;;;;5.28;2.40;;;19.60;99.90;;;;;;5047983;28;20337;-64
2023/08/21 04:26:02;;;;;;;7.25;2.10;;;19.50;99.90;;;;;;5048447;28;20590;-64
2023/08/21 04:28:33;;;;;;;5.00;2.33;;;19.50;99.90;;;;;;5025958;28;20655;-65
2023/08/21 04:31:05;;;;;;;7.85;2.13;;;19.60;99.90;;;;;;5029535;28;20210;-65
2023/08/21 04:33:34;;;;;;;7.97;2.83;;;19.50;99.90;;;;;;5046818;28;20282;-64
2023/08/21 04:36:01;;;;;;;3.42;2.33;;;19.20;99.90;;;;;;5055496;28;20288;-64
2023/08/21 04:38:28;;;;;;;9.32;2.90;;;18.10;99.90;;;;;;5063730;28;20325;-64
2023/08/21 04:40:56;;;;;;;5.20;2.33;;;17.90;99.90;;;;;;5065407;28;20216;-63
2023/08/21 04:43:23;;;;;;;2.53;1.92;;;18.00;99.90;;;;;;5049964;28;20281;-64
2023/08/21 04:45:54;;;;;;;4.90;2.10;;;18.50;99.90;;;;;;5059038;28;20210;-64
2023/08/21 04:48:23;;;;;;;2.83;2.17;;;18.90;99.90;;;;;;5046311;28;20655;-63
2023/08/21 04:50:50;;;;;;;4.68;2.22;;;19.10;99.90;;;;;;5043845;28;20187;-63
2023/08/21 04:53:18;;;;;;;3.15;2.33;;;19.40;99.90;;;;;;5044890;28;20282;-65
2023/08/21 04:55:45;;;;;;;5.95;2.28;;;19.60;99.90;;;;;;5052453;28;20204;-65
2023/08/21 04:58:14;;;;;;;2.55;2.08;;;19.60;99.90;;;;;;5040996;28;20218;-65
2023/08/21 05:00:42;;;;;;;4.43;2.15;;;19.50;99.90;;;;;;5042524;28;20623;-66
2023/08/21 05:03:10;;;;;;;4.88;2.15;;;19.60;99.90;;;;;;5033891;28;20227;-66
2023/08/21 05:05:38;;;;;;;3.90;2.10;;;19.50;99.90;;;;;;5044166;28;20211;-65
2023/08/21 05:08:06;;;;;;;3.70;2.15;;;19.60;99.90;;;;;;5067105;28;20538;-70
2023/08/21 05:10:33;;;;;;;5.15;2.20;;;19.50;99.90;;;;;;5028968;28;20183;-64
2023/08/21 05:13:00;;;;;;;6.45;2.45;;;19.60;99.90;;;;;;5024591;28;20203;-64
2023/08/21 05:15:28;;;;;;;3.40;2.30;;;19.70;99.90;;;;;;5039808;28;20191;-64
2023/08/21 05:17:55;;;;;;;5.35;2.58;;;19.80;99.90;;;;;;5048215;28;20301;-64
2023/08/21 05:20:23;;;;;;;5.63;2.40;;;19.50;99.90;;;;;;5053723;28;20701;-66
2023/08/21 05:22:51;;;;;;;3.15;2.47;;;19.00;99.90;;;;;;5061826;28;20191;-66
2023/08/21 05:25:18;;;;;;;5.00;2.80;;;18.90;99.90;;;;;;5049578;28;20231;-65
2023/08/21 05:27:46;;;;;;;3.83;2.80;;;18.50;99.90;;;;;;5049168;28;20195;-69
2023/08/21 05:30:13;;;;;;;2.85;2.42;;;18.50;99.90;;;;;;5065054;28;20205;-66
2023/08/21 05:32:40;;;;;;;2.78;2.05;;;18.60;99.90;;;;;;5060389;28;20285;-65
2023/08/21 05:35:10;;;;;;;2.92;2.42;;;19.00;99.90;;;;;;5036449;28;20194;-66
2023/08/21 05:37:44;;;;;;;2.95;2.60;;;19.50;99.90;;;;;;5047718;28;20199;-66
2023/08/21 05:40:12;;;;;;;8.13;3.17;;;19.50;99.90;;;;;;5037747;28;20252;-65
2023/08/21 05:42:39;;;;;;;2.72;2.17;;;19.40;99.90;;;;;;5048617;28;20186;-64
2023/08/21 05:45:07;;;;;;;3.97;2.17;;;19.60;99.90;;;;;;5018028;28;20291;-65
2023/08/21 05:47:35;;;;;;;6.13;2.60;;;20.00;99.90;;;;;;5032342;28;20273;-66
2023/08/21 05:50:02;;;;;;;3.50;2.00;;;21.90;99.90;;;;;;5044998;28;20199;-66
2023/08/21 05:52:29;;;;;;;4.35;1.90;;;24.60;99.90;;;;;;5038874;28;20197;-68
2023/08/21 05:54:56;;;;;;;2.90;2.10;;;26.00;99.90;;;;;;5037334;28;20293;-70
2023/08/21 05:57:23;;;;;;;5.65;1.67;;;25.20;99.90;;;;;;5028471;28;20187;-70
2023/08/21 05:59:51;;;;;;;6.35;1.90;;;25.70;99.90;;;;;;5035916;28;20294;-71
2023/08/21 06:02:19;;;;;;;5.50;2.00;;;26.70;99.90;;;;;;5038523;28;20670;-70
2023/08/21 06:04:46;;;;;;;2.38;2.17;;;24.60;99.90;;;;;;5044248;28;20214;-66
2023/08/21 06:07:13;;;;;;;2.40;2.03;;;22.60;99.90;;;;;;5064094;28;20215;-66
2023/08/21 06:09:40;;;;;;;3.53;2.47;;;22.20;99.90;;;;;;5046591;28;20663;-66
2023/08/21 06:12:08;;;;;;;3.50;2.40;;;21.80;99.90;;;;;;5045433;28;20199;-66
2023/08/21 06:14:37;;;;;;;6.28;2.55;;;22.10;99.90;;;;;;5048973;28;20206;-66
2023/08/21 06:17:05;;;;;;;2.97;2.50;;;23.10;99.90;;;;;;5044026;28;20191;-66
2023/08/21 06:19:32;;;;;;;5.40;2.13;;;24.90;99.90;;;;;;5048275;28;20198;-66
2023/08/21 06:21:59;;;;;;;2.38;2.05;;;24.30;99.90;;;;;;5049044;28;20199;-66
2023/08/21 06:24:26;;;;;;;3.28;2.22;;;23.40;99.90;;;;;;5022227;28;20251;-66
2023/08/21 06:26:59;;;;;;;3.83;2.33;;;22.90;99.90;;;;;;5045211;28;20219;-66
2023/08/21 06:29:26;;;;;;;5.55;2.30;;;22.80;99.90;;;;;;5041035;28;20225;-66
2023/08/21 06:31:54;;;;;;;3.38;1.90;;;22.70;99.90;;;;;;5034835;28;20211;-66
2023/08/21 06:34:23;;;;;;;2.95;2.15;;;23.10;99.90;;;;;;5020006;28;20776;-66
2023/08/21 06:36:51;;;;;;;4.10;2.15;;;25.10;99.90;;;;;;5005300;28;20251;-66
2023/08/21 06:39:18;;;;;;;5.50;2.70;;;26.20;99.90;;;;;;5006775;28;20230;-66
2023/08/21 06:41:45;;;;;;;6.13;2.60;;;26.70;99.90;;;;;;5037994;28;20978;-66
2023/08/21 06:44:18;;;;;;;2.75;2.03;;;26.40;99.90;;;;;;5019872;28;20200;-66
2023/08/21 06:46:45;;;;;;;3.63;2.28;;;25.90;99.90;;;;;;5040092;28;20207;-66
2023/08/21 06:49:13;;;;;;;3.40;2.20;;;25.40;99.90;;;;;;5041516;28;20187;-66
2023/08/21 06:51:40;;;;;;;5.90;2.20;;;25.20;99.90;;;;;;5042850;28;20501;-66
2023/08/21 06:54:07;;;;;;;2.80;2.20;;;25.30;99.90;;;;;;5044648;28;20203;-66
2023/08/21 06:56:34;;;;;;;14.98;2.88;;;25.50;99.90;;;;;;5044075;28;20262;-66
2023/08/21 06:59:02;;;;;;;3.85;2.28;;;27.10;99.90;;;;;;5037645;28;20299;-66
2023/08/21 07:01:28;;;;;;;4.93;2.10;;;28.20;99.90;;;;;;5037920;28;20192;-66
2023/08/21 07:03:56;;;;;;;3.05;2.38;;;28.80;99.90;;;;;;5042496;28;20500;-66
2023/08/21 07:06:23;;;;;;;5.05;2.42;;;28.50;99.90;;;;;;5045150;28;20207;-67
2023/08/21 07:08:49;;;;;;;6.85;2.38;;;26.70;99.90;;;;;;5037106;28;20226;-66
2023/08/21 07:11:17;;;;;;;4.68;2.22;;;26.50;99.90;;;;;;5021384;28;20207;-66
2023/08/21 07:13:44;;;;;;;3.95;2.17;;;28.30;99.90;;;;;;5031636;28;20214;-66
2023/08/21 07:16:11;;;;;;;4.20;2.40;;;28.80;99.90;;;;;;5035298;28;20252;-66
2023/08/21 07:18:38;;;;;;;2.75;2.20;;;30.60;99.90;;;;;;5037412;28;20621;-66
2023/08/21 07:21:05;;;;;;;8.20;2.70;;;30.50;99.90;;;;;;5044019;28;20605;-66
2023/08/21 07:23:52;;;;;;;5.75;2.60;;;29.60;99.90;;;;;;5040116;28;20245;-66
2023/08/21 07:26:19;;;;;;;5.63;2.50;;;31.30;99.90;;;;;;5057361;28;20213;-65
2023/08/21 07:28:46;;;;;;;5.45;2.78;;;34.10;99.90;;;;;;5035410;28;22370;-66
2023/08/21 07:31:13;;;;;;;3.50;2.65;;;34.60;99.90;;;;;;5036125;28;20445;-66
2023/08/21 07:33:40;;;;;;;6.15;2.75;;;37.00;99.90;;;;;;5054992;28;20272;-66
2023/08/21 07:36:07;;;;;;;4.40;2.45;;;35.70;99.90;;;;;;5062175;28;20617;-66
2023/08/21 07:38:34;;;;;;;3.10;2.25;;;33.90;99.90;;;;;;5042242;28;20646;-66
2023/08/21 07:41:10;;;;;;;2.67;2.40;;;34.90;99.90;;;;;;5012756;28;20199;-66
2023/08/21 07:43:40;;;;;;;3.28;2.50;;;35.10;99.90;;;;;;5007886;28;20217;-66
2023/08/21 07:46:13;;;;;;;4.38;2.72;;;36.20;99.90;;;;;;5041474;28;20266;-66
2023/08/21 07:48:40;;;;;;;3.67;2.63;;;37.60;99.90;;;;;;5045988;28;20243;-66
2023/08/21 07:51:07;;;;;;;6.05;3.00;;;39.10;99.90;;;;;;5038728;28;20191;-66
2023/08/21 07:53:35;;;;;;;3.50;2.72;;;39.30;99.90;;;;;;5042924;28;20272;-66
2023/08/21 07:56:06;;;;;;;4.05;2.67;;;36.80;99.90;;;;;;5034482;28;20198;-66
2023/08/21 07:58:33;;;;;;;6.00;2.80;;;36.20;99.90;;;;;;5046439;28;20197;-66
2023/08/21 08:01:01;;;;;;;5.63;3.00;;;35.80;99.90;;;;;;5038819;28;20567;-66
2023/08/21 08:03:28;;;;;;;7.10;2.83;;;33.60;99.90;;;;;;5039634;28;20569;-66
2023/08/21 08:05:56;;;;;;;4.15;3.10;;;33.00;99.90;;;;;;5060591;28;20191;-66
2023/08/21 08:08:23;;;;;;;4.78;3.00;;;35.50;99.90;;;;;;5045781;28;20211;-67
2023/08/21 08:10:50;;;;;;;4.28;3.05;;;36.20;99.90;;;;;;5061916;28;20218;-66
2023/08/21 08:13:17;;;;;;;4.80;2.95;;;36.70;99.90;;;;;;5046279;28;20271;-66
2023/08/21 08:15:44;;;;;;;6.78;3.20;;;37.70;99.90;;;;;;5042313;28;20384;-66
2023/08/21 08:18:12;;;;;;;8.07;3.10;;;37.00;99.90;;;;;;5039679;28;20557;-66
2023/08/21 08:20:40;;;;;;;7.35;3.33;;;39.80;99.90;;;;;;5048191;28;20669;-67
2023/08/21 08:23:07;;;;;;;3.90;3.25;;;41.40;99.90;;;;;;5053535;28;20210;-67
2023/08/21 08:25:34;;;;;;;6.22;3.03;;;39.60;99.90;;;;;;5045563;28;20241;-67
2023/08/21 08:28:02;;;;;;;4.90;3.53;;;40.10;99.90;;;;;;5020035;28;20222;-67
2023/08/21 08:30:29;;;;;;;4.80;3.17;;;42.20;99.90;;;;;;5045345;28;20722;-67
2023/08/21 08:32:56;;;;;;;6.22;3.00;;;39.40;99.90;;;;;;5063634;28;20203;-67
2023/08/21 08:35:23;;;;;;;5.53;3.50;;;40.00;99.90;;;;;;5064830;28;20248;-66
2023/08/21 08:37:50;;;;;;;3.97;3.25;;;40.20;99.90;;;;;;5047142;28;20207;-67
2023/08/21 08:40:17;;;;;;;5.85;3.15;;;40.50;99.90;;;;;;5069268;28;20258;-66
2023/08/21 08:42:44;;;;;;;4.07;3.22;;;39.60;99.90;;;;;;5068857;28;20551;-66
2023/08/21 08:45:14;;;;;;;4.00;3.28;;;39.70;99.90;;;;;;5049644;28;20630;-66
2023/08/21 08:47:41;;;;;;;4.80;3.50;;;39.60;99.90;;;;;;5059974;28;20279;-67
2023/08/21 08:50:09;;;;;;;3.20;2.90;;;40.00;99.90;;;;;;5042893;28;20206;-66
2023/08/21 08:52:38;;;;;;;4.47;3.40;;;37.60;99.90;;;;;;5023112;28;20187;-67
2023/08/21 08:55:07;;;;;;;6.25;3.00;;;38.50;99.90;;;;;;5062301;28;20719;-66
2023/08/21 08:57:34;;;;;;;4.38;2.92;;;38.40;99.90;;;;;;5066688;28;20217;-66
2023/08/21 09:00:04;;;;;;;3.25;2.95;;;39.40;99.90;;;;;;5048857;28;20206;-66
2023/08/21 09:02:32;;;;;;;4.18;2.83;;;38.70;99.90;;;;;;5061025;28;20313;-67
2023/08/21 09:04:59;;;;;;;4.63;3.15;;;36.70;99.90;;;;;;5066126;28;20228;-66
2023/08/21 09:07:26;;;;;;;3.63;2.97;;;34.30;99.90;;;;;;5067378;28;20210;-66
2023/08/21 09:09:53;;;;;;;4.05;2.85;;;34.70;99.90;;;;;;5045097;28;20195;-66
2023/08/21 09:12:21;;;;;;;5.75;2.83;;;36.50;99.90;;;;;;5068066;28;20240;-66
2023/08/21 09:14:48;;;;;;;3.47;2.83;;;37.40;99.90;;;;;;5064750;28;20190;-66
2023/08/21 09:17:16;;;;;;;7.93;3.30;;;38.70;99.90;;;;;;5030306;28;20221;-66
2023/08/21 09:19:43;;;;;;;5.68;3.10;;;36.40;99.90;;;;;;5050446;28;20203;-66
2023/08/21 09:22:12;;;;;;;3.80;2.92;;;36.20;99.90;;;;;;5065801;28;20613;-66
2023/08/21 09:24:40;;;;;;;3.70;3.00;;;37.10;99.90;;;;;;5041979;28;20693;-66
2023/08/21 09:27:15;;;;;;;5.40;3.10;;;37.50;99.90;;;;;;5030937;28;20211;-66
2023/08/21 09:29:42;;;;;;;7.18;2.90;;;38.30;99.90;;;;;;5063266;28;20247;-66
2023/08/21 09:32:09;;;;;;;3.30;3.00;;;35.40;99.90;;;;;;5042595;28;20372;-66
2023/08/21 09:34:37;;;;;;;3.15;2.85;;;36.40;99.90;;;;;;5042858;28;20186;-66
2023/08/21 09:37:09;;;;;;;3.67;2.72;;;37.40;99.90;;;;;;5063571;28;20194;-66
2023/08/21 09:39:39;;;;;;;5.38;2.80;;;36.70;99.90;;;;;;5046051;28;20585;-66
2023/08/21 09:42:08;;;;;;;3.85;3.00;;;39.90;99.90;;;;;;5057891;28;20283;-66
2023/08/21 09:44:43;;;;;;;4.03;2.70;;;41.40;99.90;;;;;;5040331;28;20690;-67
2023/08/21 09:47:11;;;;;;;4.85;3.00;;;38.40;99.90;;;;;;5042241;28;20245;-66
2023/08/21 09:49:39;;;;;;;3.85;2.88;;;34.70;99.90;;;;;;5021372;28;20671;-66
2023/08/21 09:52:10;;;;;;;6.65;3.55;;;35.00;99.90;;;;;;5065675;28;20306;-66
2023/08/21 09:54:42;;;;;;;3.78;2.97;;;34.90;99.90;;;;;;5057697;28;20191;-66
2023/08/21 09:57:10;;;;;;;2.80;2.60;;;34.10;99.90;;;;;;5061621;28;20244;-66
2023/08/21 09:59:41;;;;;;;6.75;2.63;;;34.70;99.90;;;;;;5048027;28;20195;-66
2023/08/21 10:02:09;;;;;;;6.63;2.83;;;35.70;99.90;;;;;;5030881;28;20565;-69
2023/08/21 10:04:40;;;;;;;2.63;2.25;;;36.00;99.90;;;;;;5044406;28;20198;-69
2023/08/21 10:07:07;;;;;;;4.63;2.70;;;36.50;99.90;;;;;;5065767;28;20202;-67
2023/08/21 10:09:36;;;;;;;5.07;2.92;;;36.00;99.90;;;;;;5043763;28;20261;-66
2023/08/21 10:12:04;;;;;;;4.35;2.88;;;37.00;99.90;;;;;;5049303;28;20190;-66
2023/08/21 10:14:32;;;;;;;4.47;3.00;;;38.10;99.90;;;;;;5043177;28;20198;-69
2023/08/21 10:16:59;;;;;;;3.58;2.80;;;38.10;99.90;;;;;;5062846;28;20233;-70
2023/08/21 10:19:33;;;;;;;2.60;2.40;;;38.50;99.90;;;;;;5045798;28;20316;-69
2023/08/21 10:21:59;;;;;;;3.72;2.78;;;37.60;99.90;;;;;;5038319;28;20206;-69
2023/08/21 10:24:28;;;;;;;2.90;2.60;;;37.60;99.90;;;;;;5049277;28;20736;-70
2023/08/21 10:26:59;;;;;;;5.65;2.83;;;35.20;99.90;;;;;;5063889;28;20249;-66
2023/08/21 10:29:26;;;;;;;7.53;2.65;;;35.50;99.90;;;;;;5040232;28;20217;-65
2023/08/21 10:32:04;;;;;;;3.80;2.88;;;36.20;99.90;;;;;;5029555;28;20202;-66
2023/08/21 10:34:37;;;;;;;2.70;2.47;;;36.50;99.90;;;;;;5056563;28;20192;-65
2023/08/21 10:37:10;;;;;;;3.40;3.08;;;36.60;99.90;;;;;;5065119;28;20194;-66
2023/08/21 10:39:39;;;;;;;4.78;3.10;;;35.70;99.90;;;;;;5043819;28;20770;-65
2023/08/21 10:42:15;;;;;;;3.67;3.03;;;34.10;99.90;;;;;;5041098;28;20195;-67
2023/08/21 10:45:00;;;;;;;2.90;2.70;;;33.00;99.90;;;;;;5064164;28;20195;-67
2023/08/21 10:47:27;;;;;;;3.30;2.90;;;33.10;99.90;;;;;;5045881;28;20218;-67
2023/08/21 10:49:59;;;;;;;4.15;2.78;;;33.40;99.90;;;;;;5019565;28;20756;-66
2023/08/21 10:52:28;;;;;;;3.85;2.80;;;33.40;99.90;;;;;;5059481;28;20198;-67
2023/08/21 10:54:58;;;;;;;4.60;3.00;;;33.30;99.90;;;;;;5055939;28;20187;-65
2023/08/21 10:57:27;;;;;;;6.18;3.00;;;33.30;99.90;;;;;;5034527;28;20218;-64
2023/08/21 10:59:56;;;;;;;4.10;2.75;;;32.80;99.90;;;;;;5037464;28;20558;-64
2023/08/21 11:02:31;;;;;;;3.47;2.97;;;33.80;99.90;;;;;;5031963;28;20211;-67
2023/08/21 11:04:59;;;;;;;7.32;2.90;;;33.20;99.90;;;;;;5034365;28;20186;-66
2023/08/21 11:07:28;;;;;;;3.67;2.90;;;34.40;99.90;;;;;;5060540;28;20199;-69
2023/08/21 11:09:56;;;;;;;2.92;2.63;;;34.90;99.90;;;;;;5045263;28;20198;-66
2023/08/21 11:12:24;;;;;;;4.35;3.08;;;34.30;99.90;;;;;;5032914;28;20196;-69
2023/08/21 11:14:51;;;;;;;3.75;2.92;;;32.90;99.90;;;;;;5065764;28;20191;-66
2023/08/21 11:17:18;;;;;;;3.13;2.70;;;33.10;99.90;;;;;;5066827;28;20550;-66
2023/08/21 11:50:02;;;;;;;2.90;2.65;;;36.70;99.90;;;;;;5038713;28;20753;-67
2023/08/21 11:52:31;;;;;;;3.10;2.80;;;36.90;99.90;;;;;;5041704;28;20205;-67
2023/08/21 11:54:58;;;;;;;4.75;2.80;;;36.00;99.90;;;;;;5059804;28;20191;-66
2023/08/21 11:57:25;;;;;;;4.25;2.75;;;34.40;99.90;;;;;;5026811;28;20486;-67
2023/08/21 11:59:56;;;;;;;3.47;2.97;;;34.40;99.90;;;;;;5046031;28;20507;-70
2023/08/21 12:02:25;;;;;;;3.60;2.72;;;34.60;99.90;;;;;;5041275;28;20226;-69
2023/08/21 12:04:53;;;;;;;2.75;2.55;;;35.50;99.90;;;;;;5023234;28;20202;-68
2023/08/21 12:07:24;;;;;;;3.35;3.05;;;35.10;99.90;;;;;;5028314;28;20226;-71
2023/08/21 12:09:51;;;;;;;3.30;2.83;;;34.00;99.90;;;;;;5046589;28;20210;-69
2023/08/21 12:12:18;;;;;;;4.22;2.90;;;34.80;99.90;;;;;;5031187;28;20226;-70
2023/08/21 12:14:46;;;;;;;8.10;3.60;;;35.10;99.90;;;;;;5049432;28;20187;-70
2023/08/21 12:17:13;;;;;;;3.80;2.85;;;34.60;99.90;;;;;;5041867;28;20199;-69
2023/08/21 12:19:41;;;;;;;4.15;3.30;;;35.00;99.90;;;;;;5044000;28;20205;-69
2023/08/21 12:22:09;;;;;;;3.10;2.80;;;34.60;99.90;;;;;;5041225;28;20214;-70
2023/08/21 12:24:38;;;;;;;3.30;2.75;;;34.60;99.90;;;;;;5046600;28;20203;-70
2023/08/21 12:27:06;;;;;;;3.67;3.20;;;35.50;99.90;;;;;;5041963;28;20632;-70
2023/08/21 12:29:34;;;;;;;2.60;2.42;;;34.50;99.90;;;;;;5040630;28;20206;-67
2023/08/21 12:32:02;;;;;;;3.20;2.90;;;34.30;99.90;;;;;;5040646;28;20195;-67
2023/08/21 12:34:29;;;;;;;3.13;2.85;;;34.00;99.90;;;;;;5043165;28;20191;-69
2023/08/21 12:36:57;;;;;;;2.90;2.70;;;33.40;99.90;;;;;;5050709;28;20196;-69
2023/08/21 12:39:24;;;;;;;4.85;3.30;;;33.10;99.90;;;;;;5040259;28;20207;-68
2023/08/21 12:41:51;;;;;;;3.20;3.00;;;32.00;99.90;;;;;;5026664;28;20627;-68
2023/08/21 12:44:18;;;;;;;7.97;3.28;;;31.80;99.90;;;;;;5024830;28;20260;-68
2023/08/21 12:46:45;;;;;;;5.20;4.00;;;31.90;99.90;;;;;;5030262;28;20687;-68
2023/08/21 12:49:12;;;;;;;4.68;3.42;;;32.40;99.90;;;;;;5024748;28;20226;-69
2023/08/21 12:51:39;;;;;;;3.78;3.47;;;32.20;99.90;;;;;;5047370;28;20742;-69
2023/08/21 12:54:08;;;;;;;3.80;3.40;;;32.20;99.90;;;;;;5041682;28;20199;-68
2023/08/21 12:56:36;;;;;;;4.18;3.42;;;31.60;99.90;;;;;;5029508;28;20192;-68
2023/08/21 12:59:03;;;;;;;3.90;3.50;;;30.40;99.90;;;;;;5047640;28;20682;-67
2023/08/21 13:01:31;;;;;;;5.63;3.40;;;30.50;99.90;;;;;;5046844;28;20287;-68
2023/08/21 13:03:58;;;;;;;7.03;3.30;;;30.80;99.90;;;;;;5041400;28;20298;-65
2023/08/21 13:06:26;;;;;;;4.20;3.22;;;30.60;99.90;;;;;;5022317;28;20202;-68
2023/08/21 13:08:54;;;;;;;3.65;3.33;;;30.80;99.90;;;;;;5044696;28;20219;-66
2023/08/21 13:11:21;;;;;;;5.03;2.95;;;30.60;99.90;;;;;;5049034;28;20650;-66
2023/08/21 13:13:48;;;;;;;3.40;3.03;;;30.70;99.90;;;;;;5044081;28;20200;-66
2023/08/21 13:16:15;;;;;;;3.45;3.15;;;30.80;99.90;;;;;;5038072;28;20699;-68
2023/08/21 13:18:42;;;;;;;3.88;2.90;;;30.80;99.90;;;;;;5038490;28;20204;-65
2023/08/21 13:21:10;;;;;;;4.18;3.47;;;30.80;99.90;;;;;;5045581;28;20230;-67
2023/08/21 13:23:37;;;;;;;4.72;3.30;;;30.50;99.90;;;;;;5038339;28;20723;-65
2023/08/21 13:26:03;;;;;;;4.75;2.85;;;30.70;99.90;;;;;;5039232;28;20284;-68
2023/08/21 13:28:31;;;;;;;5.10;2.78;;;31.20;99.90;;;;;;5044591;28;20570;-67